createdAt,value
2018-03-04T00:00:58.284Z,147.27
2018-03-04T00:03:25.016Z,153.00
2018-03-04T00:05:51.672Z,138.20
2018-03-04T00:08:18.335Z,139.40
2018-03-04T00:10:45.079Z,141.70
2018-03-04T00:13:11.834Z,146.30
2018-03-04T00:15:38.666Z,147.67
2018-03-04T00:18:05.349Z,153.17
2018-03-04T00:20:32.191Z,141.40
2018-03-04T00:22:59.017Z,155.30
2018-03-04T00:25:25.751Z,145.80
2018-03-04T00:27:52.447Z,146.00
2018-03-04T00:30:19.108Z,160.03
2018-03-04T00:32:45.749Z,140.60
2018-03-04T00:35:12.362Z,139.30
2018-03-04T00:37:39.420Z,139.63
2018-03-04T00:40:06.044Z,142.60
2018-03-04T00:42:32.727Z,136.23
2018-03-04T00:44:59.377Z,144.20
2018-03-04T00:47:26.005Z,138.30
2018-03-04T00:49:52.663Z,143.20
2018-03-04T00:52:19.393Z,141.13
2018-03-04T00:54:46.051Z,144.30
2018-03-04T00:57:12.694Z,143.97
2018-03-04T00:59:39.349Z,147.80
2018-03-04T01:02:05.994Z,149.90
2018-03-04T01:04:32.673Z,150.03
2018-03-04T01:06:59.578Z,158.80
2018-03-04T01:09:26.221Z,156.50
2018-03-04T01:11:52.879Z,138.30
2018-03-04T01:14:20.175Z,144.10
2018-03-04T01:16:46.825Z,149.83
2018-03-04T01:19:13.485Z,148.87
2018-03-04T01:21:40.135Z,162.43
2018-03-04T01:24:06.838Z,150.47
2018-03-04T01:26:33.498Z,169.03
2018-03-04T01:29:00.152Z,160.00
2018-03-04T01:31:26.825Z,146.70
2018-03-04T01:33:53.465Z,139.37
2018-03-04T01:36:20.138Z,145.53
2018-03-04T01:38:46.838Z,151.53
2018-03-04T01:41:13.514Z,141.60
2018-03-04T01:43:40.214Z,138.10
2018-03-04T01:46:06.850Z,147.33
2018-03-04T01:48:33.551Z,147.43
2018-03-04T01:51:00.193Z,124.17
2018-03-04T01:53:26.909Z,135.13
2018-03-04T01:55:53.984Z,137.07
2018-03-04T01:58:20.704Z,147.73
2018-03-04T02:00:47.337Z,134.80
2018-03-04T02:03:13.989Z,146.03
2018-03-04T02:05:40.762Z,140.50
2018-03-04T02:08:07.449Z,144.70
2018-03-04T02:10:34.128Z,142.73
2018-03-04T02:13:00.764Z,134.40
2018-03-04T02:15:27.518Z,146.80
2018-03-04T02:17:54.147Z,145.83
2018-03-04T02:20:20.817Z,138.97
2018-03-04T02:22:47.445Z,132.47
2018-03-04T02:25:14.158Z,140.83
2018-03-04T02:27:40.794Z,151.07
2018-03-04T02:30:07.458Z,144.60
2018-03-04T02:32:34.125Z,148.27
2018-03-04T02:35:00.805Z,131.83
2018-03-04T02:37:27.515Z,140.33
2018-03-04T02:39:54.257Z,144.93
2018-03-04T02:42:20.962Z,134.00
2018-03-04T02:44:47.625Z,147.67
2018-03-04T02:47:14.309Z,133.83
2018-03-04T02:49:40.959Z,138.30
2018-03-04T02:52:07.613Z,129.47
2018-03-04T02:54:34.356Z,133.13
2018-03-04T02:57:01.050Z,136.90
2018-03-04T02:59:27.803Z,133.63
2018-03-04T03:01:54.504Z,131.17
2018-03-04T03:04:21.242Z,139.93
2018-03-04T03:06:47.985Z,136.80
2018-03-04T03:09:14.619Z,144.23
2018-03-04T03:11:41.270Z,134.40
2018-03-04T03:14:07.913Z,134.10
2018-03-04T03:16:34.626Z,141.77
2018-03-04T03:19:01.316Z,137.87
2018-03-04T03:21:28.020Z,128.30
2018-03-04T03:23:54.680Z,130.67
2018-03-04T03:26:21.295Z,127.77
2018-03-04T03:28:47.928Z,122.60
2018-03-04T03:31:15.170Z,121.17
2018-03-04T03:33:41.811Z,126.40
2018-03-04T03:36:08.489Z,120.50
2018-03-04T03:38:35.198Z,115.30
2018-03-04T03:41:01.832Z,114.73
2018-03-04T03:43:28.502Z,114.17
2018-03-04T03:45:55.108Z,111.10
2018-03-04T03:48:21.918Z,124.57
2018-03-04T03:50:48.627Z,115.73
2018-03-04T03:53:15.283Z,122.00
2018-03-04T03:55:41.947Z,107.20
2018-03-04T03:58:08.618Z,118.47
2018-03-04T04:00:35.249Z,107.83
2018-03-04T04:03:01.967Z,107.97
2018-03-04T04:05:28.626Z,102.47
2018-03-04T04:07:55.295Z,113.97
2018-03-04T04:10:21.985Z,104.77
2018-03-04T04:12:48.643Z,115.47
2018-03-04T04:15:15.315Z,110.70
2018-03-04T04:17:41.964Z,113.97
2018-03-04T04:20:08.650Z,116.07
2018-03-04T04:22:35.293Z,108.93
2018-03-04T04:25:01.981Z,109.13
2018-03-04T04:27:28.654Z,116.97
2018-03-04T04:29:55.308Z,117.67
2018-03-04T04:32:21.961Z,103.90
2018-03-04T04:34:48.621Z,103.63
2018-03-04T04:37:15.277Z,91.13
2018-03-04T04:39:42.121Z,106.73
2018-03-04T04:42:09.470Z,96.87
2018-03-04T04:44:36.134Z,117.33
2018-03-04T04:47:02.871Z,127.53
2018-03-04T04:49:29.500Z,110.23
2018-03-04T04:51:56.243Z,106.10
2018-03-04T04:54:22.888Z,109.63
2018-03-04T04:56:49.524Z,115.00
2018-03-04T04:59:16.226Z,119.97
2018-03-04T05:01:42.858Z,121.63
2018-03-04T05:04:09.750Z,124.60
2018-03-04T05:06:36.425Z,109.73
2018-03-04T05:09:03.123Z,136.57
2018-03-04T05:11:29.757Z,127.00
2018-03-04T05:13:56.439Z,153.63
2018-03-04T05:16:23.395Z,146.27
2018-03-04T05:18:50.649Z,175.00
2018-03-04T05:21:18.293Z,158.73
2018-03-04T05:23:44.958Z,159.30
2018-03-04T05:26:11.593Z,160.30
2018-03-04T05:28:38.393Z,150.20
2018-03-04T05:31:05.084Z,155.83
2018-03-04T05:33:32.117Z,129.50
2018-03-04T05:35:58.783Z,124.00
2018-03-04T05:38:25.470Z,113.40
2018-03-04T05:40:52.580Z,113.97
2018-03-04T05:43:19.213Z,118.90
2018-03-04T05:45:45.896Z,127.27
2018-03-04T05:48:12.554Z,114.00
2018-03-04T05:50:39.229Z,129.77
2018-03-04T05:53:05.943Z,125.97
2018-03-04T05:55:32.603Z,117.10
2018-03-04T05:57:59.222Z,176.60
2018-03-04T06:00:26.128Z,130.17
2018-03-04T06:02:52.749Z,114.63
2018-03-04T06:05:20.272Z,147.93
2018-03-04T06:07:46.939Z,123.47
2018-03-04T06:10:18.133Z,108.93
2018-03-04T06:12:44.897Z,116.50
2018-03-04T06:15:11.573Z,118.67
2018-03-04T06:17:38.251Z,112.13
2018-03-04T06:20:04.973Z,103.07
2018-03-04T06:22:31.889Z,156.83
2018-03-04T06:24:58.566Z,103.57
2018-03-04T06:27:25.306Z,110.53
2018-03-04T06:29:52.018Z,131.57
2018-03-04T06:32:18.738Z,84.23
2018-03-04T06:34:45.384Z,96.50
2018-03-04T06:37:12.158Z,83.67
2018-03-04T06:39:38.823Z,88.40
2018-03-04T06:42:05.456Z,92.97
2018-03-04T06:44:32.436Z,129.00
2018-03-04T06:46:59.187Z,108.93
2018-03-04T06:49:25.830Z,94.03
2018-03-04T06:51:52.519Z,91.20
2018-03-04T06:54:19.215Z,88.90
2018-03-04T06:56:45.885Z,138.20
2018-03-04T06:59:12.570Z,152.67
2018-03-04T07:01:39.258Z,103.30
2018-03-04T07:04:05.923Z,96.70
2018-03-04T07:06:32.588Z,90.03
2018-03-04T07:08:59.230Z,84.20
2018-03-04T07:11:25.926Z,94.20
2018-03-04T07:13:52.554Z,87.10
2018-03-04T07:16:19.255Z,101.37
2018-03-04T07:18:45.891Z,93.10
2018-03-04T07:21:12.589Z,90.27
2018-03-04T07:23:39.268Z,114.37
2018-03-04T07:26:05.952Z,134.13
2018-03-04T07:28:32.674Z,99.40
2018-03-04T07:30:59.327Z,109.03
2018-03-04T07:33:26.000Z,147.20
2018-03-04T07:35:52.651Z,146.50
2018-03-04T07:38:19.290Z,181.13
2018-03-04T07:40:45.968Z,181.07
2018-03-04T07:43:12.692Z,120.97
2018-03-04T07:45:39.539Z,123.00
2018-03-04T07:48:06.242Z,113.23
2018-03-04T07:50:33.011Z,91.50
2018-03-04T07:53:00.468Z,79.83
2018-03-04T07:55:27.210Z,114.83
2018-03-04T07:57:53.943Z,93.53
2018-03-04T08:00:20.937Z,79.83
2018-03-04T08:02:47.554Z,80.13
2018-03-04T08:05:14.230Z,67.97
2018-03-04T08:07:41.017Z,78.93
2018-03-04T08:10:07.650Z,66.73
2018-03-04T08:12:34.292Z,83.10
2018-03-04T08:15:00.976Z,67.17
2018-03-04T08:17:27.801Z,55.50
2018-03-04T08:19:54.435Z,61.00
2018-03-04T08:22:21.117Z,90.90
2018-03-04T08:24:53.956Z,55.47
2018-03-04T08:27:26.398Z,65.60
2018-03-04T08:29:53.914Z,62.03
2018-03-04T08:32:20.575Z,60.60
2018-03-04T08:34:47.830Z,60.13
2018-03-04T08:37:14.513Z,51.63
2018-03-04T08:39:42.740Z,60.70
2018-03-04T08:42:09.662Z,60.17
2018-03-04T08:44:36.358Z,59.73
2018-03-04T08:47:03.026Z,66.27
2018-03-04T08:49:30.402Z,76.97
2018-03-04T08:51:57.316Z,67.60
2018-03-04T08:54:25.452Z,74.63
2018-03-04T08:56:52.067Z,73.40
2018-03-04T08:59:18.817Z,54.00
2018-03-04T09:01:46.376Z,57.67
2018-03-04T09:04:13.729Z,56.13
2018-03-04T09:06:40.388Z,49.77
2018-03-04T09:09:07.046Z,45.20
2018-03-04T09:11:34.012Z,47.83
2018-03-04T09:14:00.708Z,43.73
2018-03-04T09:16:27.457Z,48.60
2018-03-04T09:18:54.136Z,46.93
2018-03-04T09:21:20.915Z,43.40
2018-03-04T09:23:47.621Z,46.40
2018-03-04T09:26:14.375Z,48.77
2018-03-04T09:28:41.138Z,53.73
2018-03-04T09:31:08.082Z,50.90
2018-03-04T09:33:35.145Z,45.60
2018-03-04T09:36:01.866Z,43.30
2018-03-04T09:38:28.522Z,45.10
2018-03-04T09:40:55.200Z,41.47
2018-03-04T09:43:21.850Z,39.87
2018-03-04T09:45:48.540Z,36.57
2018-03-04T09:48:16.084Z,46.67
2018-03-04T09:50:42.843Z,47.50
2018-03-04T09:53:09.694Z,37.73
2018-03-04T09:55:36.385Z,39.70
2018-03-04T09:58:03.013Z,41.80
2018-03-04T10:00:29.819Z,40.50
2018-03-04T10:02:57.818Z,41.83
2018-03-04T10:05:24.496Z,40.90
2018-03-04T10:07:51.166Z,48.43
2018-03-04T10:10:17.930Z,42.80
2018-03-04T10:12:44.606Z,39.33
2018-03-04T10:15:12.055Z,41.73
2018-03-04T10:17:38.757Z,43.80
2018-03-04T10:20:05.388Z,47.13
2018-03-04T10:22:32.152Z,40.07
2018-03-04T10:24:58.821Z,43.73
2018-03-04T10:27:25.748Z,42.07
2018-03-04T10:29:52.833Z,46.77
2018-03-04T10:32:19.524Z,47.80
2018-03-04T10:34:46.184Z,46.57
2018-03-04T10:37:12.873Z,47.63
2018-03-04T10:39:40.502Z,48.93
2018-03-04T10:42:07.146Z,46.47
2018-03-04T10:44:33.856Z,49.43
2018-03-04T10:47:00.782Z,45.17
2018-03-04T10:49:27.451Z,40.87
2018-03-04T10:51:54.243Z,48.37
2018-03-04T10:54:20.899Z,49.30
2018-03-04T10:56:48.547Z,52.43
2018-03-04T10:59:15.234Z,55.20
2018-03-04T11:01:43.776Z,54.10
2018-03-04T11:04:10.521Z,50.37
2018-03-04T11:06:37.141Z,54.10
2018-03-04T11:09:03.790Z,50.77
2018-03-04T11:11:30.513Z,49.10
2018-03-04T11:13:58.381Z,50.60
2018-03-04T11:16:25.064Z,48.97
2018-03-04T11:18:53.584Z,51.90
2018-03-04T11:21:20.321Z,52.20
2018-03-04T11:23:46.995Z,47.30
2018-03-04T11:26:15.317Z,44.07
2018-03-04T11:28:44.174Z,48.73
2018-03-04T11:31:10.864Z,43.60
2018-03-04T11:33:37.626Z,46.13
2018-03-04T11:36:04.372Z,44.57
2018-03-04T11:38:31.208Z,39.10
2018-03-04T11:40:57.882Z,39.10
2018-03-04T11:43:24.613Z,38.53
2018-03-04T11:45:51.375Z,34.70
2018-03-04T11:48:18.048Z,37.20
2018-03-04T11:50:44.745Z,35.33
2018-03-04T11:53:11.396Z,36.30
2018-03-04T11:55:38.034Z,38.57
2018-03-04T11:58:04.917Z,39.17
2018-03-04T12:00:31.586Z,43.40
2018-03-04T12:02:58.553Z,42.20
2018-03-04T12:05:25.206Z,42.17
2018-03-04T12:07:52.193Z,39.47
2018-03-04T12:10:18.876Z,42.13
2018-03-04T12:12:46.728Z,42.50
2018-03-04T12:15:14.004Z,48.07
2018-03-04T12:17:40.653Z,46.57
2018-03-04T12:20:08.101Z,49.47
2018-03-04T12:22:34.728Z,48.57
2018-03-04T12:25:01.510Z,50.93
2018-03-04T12:27:28.282Z,47.70
2018-03-04T12:29:54.930Z,56.40
2018-03-04T12:32:21.685Z,54.03
2018-03-04T12:34:48.490Z,52.60
2018-03-04T12:37:15.168Z,52.17
2018-03-04T12:39:42.000Z,48.07
2018-03-04T12:42:09.216Z,47.73
2018-03-04T12:44:35.802Z,56.43
2018-03-04T12:47:02.517Z,47.20
2018-03-04T12:49:29.302Z,55.67
2018-03-04T12:51:56.108Z,52.30
2018-03-04T12:54:22.872Z,51.87
2018-03-04T12:56:50.356Z,55.97
2018-03-04T12:59:17.045Z,51.93
2018-03-04T13:01:43.686Z,50.80
2018-03-04T13:04:10.703Z,54.03
2018-03-04T13:06:37.345Z,55.83
2018-03-04T13:09:04.014Z,48.80
2018-03-04T13:11:31.563Z,53.50
2018-03-04T13:13:58.180Z,54.90
2018-03-04T13:16:26.289Z,51.67
2018-03-04T13:18:53.628Z,47.63
2018-03-04T13:21:21.434Z,51.93
2018-03-04T13:23:48.102Z,52.10
2018-03-04T13:26:14.854Z,52.33
2018-03-04T13:28:41.597Z,49.00
2018-03-04T13:31:09.003Z,47.80
2018-03-04T13:33:35.731Z,48.27
2018-03-04T13:36:02.553Z,53.07
2018-03-04T13:38:29.212Z,47.50
2018-03-04T13:40:55.866Z,57.90
2018-03-04T13:43:22.541Z,53.40
2018-03-04T13:45:49.184Z,52.30
2018-03-04T13:48:15.994Z,52.90
2018-03-04T13:50:42.692Z,48.80
2018-03-04T13:53:09.359Z,45.00
2018-03-04T13:55:36.053Z,50.33
2018-03-04T13:58:02.816Z,42.70
2018-03-04T14:00:29.530Z,35.63
2018-03-04T14:02:56.339Z,42.70
2018-03-04T14:05:23.179Z,37.67
2018-03-04T14:07:49.918Z,24.20
2018-03-04T14:10:16.593Z,18.80
2018-03-04T14:12:43.292Z,12.80
2018-03-04T14:15:09.976Z,9.50
2018-03-04T14:17:37.666Z,4.90
2018-03-04T14:20:04.319Z,3.47
2018-03-04T14:22:30.978Z,3.07
2018-03-04T14:24:57.634Z,2.00
2018-03-04T14:27:24.316Z,1.60
2018-03-04T14:29:50.970Z,1.50
2018-03-04T14:32:17.656Z,2.10
2018-03-04T14:34:44.287Z,3.30
2018-03-04T14:37:11.044Z,2.43
2018-03-04T14:39:37.807Z,2.50
2018-03-04T14:42:04.514Z,3.30
2018-03-04T14:44:31.305Z,1.70
2018-03-04T14:46:58.131Z,2.70
2018-03-04T14:49:24.939Z,1.27
2018-03-04T14:51:51.775Z,2.27
2018-03-04T14:54:18.459Z,1.70
2018-03-04T14:56:45.606Z,2.10
2018-03-04T14:59:12.316Z,2.30
2018-03-04T15:01:38.992Z,1.43
2018-03-04T15:04:05.636Z,2.93
2018-03-04T15:06:32.523Z,1.70
2018-03-04T15:08:59.166Z,4.33
2018-03-04T15:11:25.800Z,2.90
2018-03-04T15:13:52.547Z,2.17
2018-03-04T15:16:19.254Z,2.40
2018-03-04T15:18:45.961Z,2.40
2018-03-04T15:21:12.663Z,1.43
2018-03-04T15:23:39.316Z,2.73
2018-03-04T15:26:05.985Z,16.70
2018-03-04T15:28:32.651Z,21.40
2018-03-04T15:30:59.300Z,22.37
2018-03-04T15:33:26.035Z,20.90
2018-03-04T15:35:52.773Z,18.07
2018-03-04T15:38:19.437Z,20.67
2018-03-04T15:40:46.097Z,21.40
2018-03-04T15:43:12.775Z,22.17
2018-03-04T15:45:39.427Z,24.50
2018-03-04T15:48:06.075Z,28.43
2018-03-04T15:50:32.769Z,29.13
2018-03-04T15:52:59.465Z,34.40
2018-03-04T15:55:26.226Z,31.37
2018-03-04T15:57:52.962Z,32.80
2018-03-04T16:00:19.582Z,31.53
2018-03-04T16:02:46.269Z,37.40
2018-03-04T16:05:12.919Z,36.83
2018-03-04T16:07:39.558Z,36.50
2018-03-04T16:10:06.642Z,34.90
2018-03-04T16:12:33.293Z,36.20
2018-03-04T16:14:59.958Z,38.17
2018-03-04T16:17:26.597Z,37.47
2018-03-04T16:19:53.256Z,36.17
2018-03-04T16:22:20.342Z,34.33
2018-03-04T16:24:47.800Z,35.90
2018-03-04T16:27:14.547Z,29.37
2018-03-04T16:29:41.575Z,13.40
2018-03-04T16:32:08.270Z,13.30
2018-03-04T16:34:34.936Z,17.43
2018-03-04T16:37:01.706Z,15.27
2018-03-04T16:39:28.291Z,12.90
2018-03-04T16:41:55.161Z,11.53
2018-03-04T16:44:22.008Z,9.00
2018-03-04T16:46:48.648Z,7.80
2018-03-04T16:49:15.448Z,6.83
2018-03-04T16:51:42.081Z,5.40
2018-03-04T16:54:08.753Z,12.60
2018-03-04T16:56:35.634Z,6.43
2018-03-04T16:59:02.604Z,3.50
2018-03-04T17:01:29.313Z,3.10
2018-03-04T17:03:56.077Z,2.50
2018-03-04T17:06:23.125Z,2.40
2018-03-04T17:08:49.775Z,2.70
2018-03-04T17:11:17.521Z,3.40
2018-03-04T17:13:44.167Z,2.43
2018-03-04T17:16:10.802Z,4.40
2018-03-04T17:18:37.464Z,2.00
2018-03-04T17:21:04.268Z,2.50
2018-03-04T17:23:30.978Z,1.77
2018-03-04T17:25:57.642Z,4.50
2018-03-04T17:28:24.316Z,3.90
2018-03-04T17:30:50.977Z,1.70
2018-03-04T17:33:17.980Z,2.10
2018-03-04T17:35:44.799Z,1.80
2018-03-04T17:38:12.300Z,2.93
2018-03-04T17:40:39.101Z,3.43
2018-03-04T17:43:05.837Z,1.97
2018-03-04T17:45:32.684Z,2.20
2018-03-04T17:47:59.340Z,2.33
2018-03-04T17:50:26.361Z,3.10
2018-03-04T17:52:53.646Z,3.50
2018-03-04T17:55:20.363Z,3.50
2018-03-04T17:57:47.142Z,7.07
2018-03-04T18:00:13.827Z,2.70
2018-03-04T18:02:40.542Z,5.80
2018-03-04T18:05:07.161Z,5.83
2018-03-04T18:07:33.926Z,7.07
2018-03-04T18:10:00.635Z,4.97
2018-03-04T18:12:29.448Z,5.10
2018-03-04T18:14:56.254Z,5.00
2018-03-04T18:17:22.987Z,3.77
2018-03-04T18:19:50.814Z,2.60
2018-03-04T18:22:17.458Z,2.40
2018-03-04T18:24:44.104Z,2.80
2018-03-04T18:27:10.752Z,2.10
2018-03-04T18:29:37.500Z,3.20
2018-03-04T18:32:04.149Z,2.50
2018-03-04T18:34:32.318Z,3.63
2018-03-04T18:36:59.014Z,3.10
2018-03-04T18:39:25.717Z,3.70
2018-03-04T18:41:52.582Z,5.10
2018-03-04T18:44:19.383Z,3.60
2018-03-04T18:46:46.580Z,6.60
2018-03-04T18:49:13.307Z,7.10
2018-03-04T18:51:40.003Z,12.80
2018-03-04T18:54:06.759Z,22.17
2018-03-04T18:56:33.637Z,28.73
2018-03-04T18:59:00.342Z,38.43
2018-03-04T19:01:26.997Z,42.97
2018-03-04T19:03:53.774Z,50.87
2018-03-04T19:06:20.444Z,52.97
2018-03-04T19:08:47.135Z,52.30
2018-03-04T19:11:13.994Z,49.00
2018-03-04T19:13:41.388Z,48.30
2018-03-04T19:16:08.142Z,50.57
2018-03-04T19:18:35.065Z,55.00
2018-03-04T19:21:02.188Z,58.80
2018-03-04T19:23:28.817Z,51.00
2018-03-04T19:25:55.529Z,48.07
2018-03-04T19:28:22.229Z,52.43
2018-03-04T19:30:49.057Z,50.33
2018-03-04T19:33:15.791Z,46.70
2018-03-04T19:35:42.517Z,49.27
2018-03-04T19:38:09.330Z,51.10
2018-03-04T19:40:36.132Z,50.03
2018-03-04T19:43:02.841Z,51.50
2018-03-04T19:45:30.070Z,49.10
2018-03-04T19:47:56.970Z,52.13
2018-03-04T19:50:23.637Z,50.90
2018-03-04T19:52:50.297Z,46.70
2018-03-04T19:55:16.958Z,47.40
2018-03-04T19:57:43.605Z,47.10
2018-03-04T20:00:10.384Z,55.10
2018-03-04T20:02:37.373Z,51.50
2018-03-04T20:05:04.054Z,49.10
2018-03-04T20:07:30.698Z,50.53
2018-03-04T20:09:58.584Z,50.47
2018-03-04T20:12:25.334Z,51.00
2018-03-04T20:14:52.283Z,53.20
2018-03-04T20:17:19.165Z,49.00
2018-03-04T20:19:45.892Z,50.00
2018-03-04T20:22:12.550Z,49.10
2018-03-04T20:24:39.215Z,48.73
2018-03-04T20:27:05.852Z,50.60
2018-03-04T20:29:32.531Z,51.40
2018-03-04T20:31:59.229Z,53.70
2018-03-04T20:34:25.870Z,50.70
2018-03-04T20:36:52.574Z,47.40
2018-03-04T20:39:19.310Z,49.77
2018-03-04T20:41:45.960Z,46.67
2018-03-04T20:44:12.578Z,49.37
2018-03-04T20:46:39.263Z,47.20
2018-03-04T20:49:06.790Z,48.83
2018-03-04T20:51:33.438Z,48.33
2018-03-04T20:54:00.127Z,45.73
2018-03-04T20:56:26.809Z,49.60
2018-03-04T20:58:53.496Z,45.27
2018-03-04T21:01:20.617Z,55.07
2018-03-04T21:03:47.660Z,48.50
2018-03-04T21:06:14.389Z,50.60
2018-03-04T21:08:41.016Z,49.87
2018-03-04T21:11:07.702Z,44.77
2018-03-04T21:13:34.384Z,46.03
2018-03-04T21:16:01.074Z,52.00
2018-03-04T21:18:27.774Z,49.20
2018-03-04T21:20:54.471Z,49.80
2018-03-04T21:23:21.147Z,46.73
2018-03-04T21:25:47.854Z,52.17
2018-03-04T21:28:14.899Z,47.50
2018-03-04T21:30:41.603Z,51.63
2018-03-04T21:33:08.267Z,50.73
2018-03-04T21:35:35.332Z,49.40
2018-03-04T21:38:02.108Z,51.73
2018-03-04T21:40:28.786Z,59.67
2018-03-04T21:42:55.451Z,52.17
2018-03-04T21:45:22.119Z,49.40
2018-03-04T21:47:49.051Z,55.07
2018-03-04T21:50:15.744Z,53.83
2018-03-04T21:52:44.569Z,53.00
2018-03-04T21:55:11.272Z,47.83
2018-03-04T21:57:37.956Z,49.53
2018-03-04T22:00:04.769Z,49.93
2018-03-04T22:02:31.696Z,49.73
2018-03-04T22:04:58.531Z,45.73
2018-03-04T22:07:25.188Z,44.87
2018-03-04T22:09:51.825Z,43.47
2018-03-04T22:12:18.480Z,42.20
2018-03-04T22:14:45.184Z,41.97
2018-03-04T22:17:11.870Z,44.30
2018-03-04T22:19:38.575Z,45.30
2018-03-04T22:22:05.306Z,39.30
2018-03-04T22:24:32.344Z,38.20
2018-03-04T22:26:59.009Z,37.20
2018-03-04T22:29:25.681Z,36.27
2018-03-04T22:31:54.109Z,39.90
2018-03-04T22:34:20.859Z,39.07
2018-03-04T22:36:47.570Z,34.63
2018-03-04T22:39:14.212Z,36.60
2018-03-04T22:41:41.143Z,38.63
2018-03-04T22:44:08.290Z,30.40
2018-03-04T22:46:34.995Z,33.20
2018-03-04T22:49:01.617Z,29.03
2018-03-04T22:51:28.265Z,25.37
2018-03-04T22:53:55.569Z,25.97
2018-03-04T22:56:22.275Z,26.90
2018-03-04T22:58:48.965Z,25.80
2018-03-04T23:01:15.728Z,23.57
2018-03-04T23:03:42.853Z,26.43
2018-03-04T23:06:09.502Z,24.47
2018-03-04T23:08:36.396Z,21.50
2018-03-04T23:11:03.098Z,23.63
2018-03-04T23:13:29.750Z,22.47
2018-03-04T23:15:56.500Z,24.07
2018-03-04T23:18:23.143Z,23.13
2018-03-04T23:20:49.790Z,22.40
2018-03-04T23:23:16.570Z,25.90
2018-03-04T23:25:43.487Z,22.17
2018-03-04T23:28:10.121Z,24.10
2018-03-04T23:30:36.835Z,22.03
2018-03-04T23:33:03.487Z,21.13
2018-03-04T23:35:30.160Z,21.93
2018-03-04T23:37:56.862Z,23.13
2018-03-04T23:40:23.589Z,26.83
2018-03-04T23:42:50.247Z,30.13
2018-03-04T23:45:17.109Z,35.03
2018-03-04T23:47:43.796Z,26.50
2018-03-04T23:50:10.483Z,29.70
2018-03-04T23:52:37.164Z,29.23
2018-03-04T23:55:03.788Z,28.73
2018-03-04T23:57:30.469Z,30.93
2018-03-04T23:59:57.121Z,28.90
